createdAt,value
2023-11-03T00:01:35.866Z,98650.09
2023-11-03T00:04:40.301Z,98641.41
2023-11-03T00:07:42.608Z,98638.78
2023-11-03T00:10:45.099Z,98627.44
2023-11-03T00:13:46.755Z,98634.44
2023-11-03T00:16:48.423Z,98622.22
2023-11-03T00:19:50.167Z,98616.13
2023-11-03T00:22:51.932Z,98626.59
2023-11-03T00:25:53.573Z,98619.63
2023-11-03T00:28:55.287Z,98622.22
2023-11-03T00:31:57.200Z,98613.47
2023-11-03T00:34:58.879Z,98616.16
2023-11-03T00:38:01.463Z,98585.63
2023-11-03T00:41:03.319Z,98570.88
2023-11-03T00:44:05.230Z,98564.78
2023-11-03T00:47:07.314Z,98561.28
2023-11-03T00:50:10.702Z,98554.31
2023-11-03T00:53:12.434Z,98547.41
2023-11-03T00:56:15.151Z,98543.03
2023-11-03T00:59:18.271Z,98531.69
2023-11-03T01:02:20.095Z,98527.28
2023-11-03T01:05:23.459Z,98510.72
2023-11-03T01:08:25.196Z,98504.59
2023-11-03T01:11:27.832Z,98516.78
2023-11-03T01:14:34.029Z,98513.34
2023-11-03T01:17:36.733Z,98520.38
2023-11-03T01:20:38.644Z,98511.62
2023-11-03T01:23:44.176Z,98510.75
2023-11-03T01:26:45.959Z,98500.22
2023-11-03T01:29:47.628Z,98490.47
2023-11-03T01:32:49.535Z,98486.31
2023-11-03T01:35:51.254Z,98467.19
2023-11-03T01:38:53.179Z,98483.00
2023-11-03T01:41:54.837Z,98476.91
2023-11-03T01:44:56.755Z,98469.97
2023-11-03T01:47:58.716Z,98463.88
2023-11-03T01:51:02.507Z,98455.19
2023-11-03T01:54:05.864Z,98459.50
2023-11-03T01:57:07.581Z,98463.88
2023-11-03T02:00:14.572Z,98458.69
2023-11-03T02:03:16.553Z,98462.16
2023-11-03T02:06:18.325Z,98452.56
2023-11-03T02:09:20.503Z,98438.63
2023-11-03T02:12:22.456Z,98433.41
2023-11-03T02:15:24.407Z,98426.53
2023-11-03T02:18:26.461Z,98425.72
2023-11-03T02:21:28.440Z,98424.84
2023-11-03T02:24:30.162Z,98417.84
2023-11-03T02:27:31.993Z,98405.72
2023-11-03T02:30:33.676Z,98403.06
2023-11-03T02:33:35.339Z,98384.78
2023-11-03T02:36:37.332Z,98379.59
2023-11-03T02:39:41.560Z,98380.50
2023-11-03T02:42:43.346Z,98388.41
2023-11-03T02:45:45.123Z,98371.00
2023-11-03T02:48:47.015Z,98359.69
2023-11-03T02:51:48.791Z,98343.09
2023-11-03T02:54:50.489Z,98344.00
2023-11-03T02:57:52.177Z,98346.66
2023-11-03T03:00:54.567Z,98341.44
2023-11-03T03:03:56.417Z,98344.91
2023-11-03T03:06:58.197Z,98348.41
2023-11-03T03:09:59.900Z,98331.87
2023-11-03T03:13:03.890Z,98317.97
2023-11-03T03:16:06.201Z,98321.50
2023-11-03T03:19:07.890Z,98311.97
2023-11-03T03:22:09.633Z,98305.03
2023-11-03T03:25:11.423Z,98266.88
2023-11-03T03:28:13.258Z,98253.81
2023-11-03T03:31:14.992Z,98255.56
2023-11-03T03:34:16.991Z,98269.50
2023-11-03T03:37:18.762Z,98273.00
2023-11-03T03:40:20.427Z,98274.75
2023-11-03T03:43:22.150Z,98270.34
2023-11-03T03:46:23.860Z,98256.47
2023-11-03T03:49:25.574Z,98259.06
2023-11-03T03:52:27.249Z,98258.09
2023-11-03T03:55:28.889Z,98258.09
2023-11-03T03:58:30.680Z,98251.12
2023-11-03T04:01:32.402Z,98254.59
2023-11-03T04:04:34.288Z,98270.22
2023-11-03T04:07:36.129Z,98274.47
2023-11-03T04:10:37.918Z,98252.69
2023-11-03T04:13:39.891Z,98253.59
2023-11-03T04:16:41.578Z,98243.16
2023-11-03T04:19:43.252Z,98220.62
2023-11-03T04:22:45.031Z,98209.31
2023-11-03T04:25:46.916Z,98202.37
2023-11-03T04:28:48.713Z,98200.66
2023-11-03T04:31:50.891Z,98187.56
2023-11-03T04:34:52.709Z,98177.97
2023-11-03T04:37:55.439Z,98185.03
2023-11-03T04:40:57.152Z,98180.63
2023-11-03T04:43:58.877Z,98171.94
2023-11-03T04:47:00.613Z,98177.97
2023-11-03T04:50:02.526Z,98163.09
2023-11-03T04:53:04.377Z,98158.72
2023-11-03T04:56:06.527Z,98144.75
2023-11-03T04:59:09.144Z,98135.94
2023-11-03T05:02:11.241Z,98118.63
2023-11-03T05:05:12.936Z,98115.03
2023-11-03T05:08:14.702Z,98106.28
2023-11-03T05:11:16.421Z,98099.38
2023-11-03T05:14:18.086Z,98094.13
2023-11-03T05:17:19.769Z,98080.13
2023-11-03T05:20:21.799Z,98070.50
2023-11-03T05:23:23.493Z,98059.13
2023-11-03T05:26:25.632Z,98054.78
2023-11-03T05:29:28.252Z,98062.44
2023-11-03T05:32:30.285Z,98066.78
2023-11-03T05:35:31.969Z,98067.75
2023-11-03T05:38:34.738Z,98070.34
2023-11-03T05:41:36.830Z,98067.63
2023-11-03T05:44:38.524Z,98075.41
2023-11-03T05:47:40.277Z,98063.03
2023-11-03T05:50:42.002Z,98060.31
2023-11-03T05:53:43.758Z,98063.75
2023-11-03T05:56:45.608Z,98070.59
2023-11-03T05:59:47.328Z,98063.50
2023-11-03T06:02:50.038Z,98067.81
2023-11-03T06:05:51.928Z,98061.69
2023-11-03T06:08:54.209Z,98065.25
2023-11-03T06:11:55.911Z,98066.91
2023-11-03T06:14:57.586Z,98073.78
2023-11-03T06:17:59.352Z,98077.25
2023-11-03T06:21:01.206Z,98057.06
2023-11-03T06:24:02.977Z,98066.56
2023-11-03T06:27:04.737Z,98059.53
2023-11-03T06:30:07.939Z,98056.91
2023-11-03T06:33:09.939Z,98062.91
2023-11-03T06:36:11.762Z,98069.75
2023-11-03T06:39:13.554Z,98069.62
2023-11-03T06:42:15.390Z,98057.25
2023-11-03T06:45:17.527Z,98045.81
2023-11-03T06:48:19.253Z,98043.88
2023-11-03T06:51:21.183Z,98051.44
2023-11-03T06:54:23.068Z,98038.72
2023-11-03T06:57:24.930Z,98032.81
2023-11-03T07:00:26.705Z,98043.06
2023-11-03T07:03:28.616Z,98033.63
2023-11-03T07:06:30.838Z,98040.81
2023-11-03T07:09:33.383Z,98033.06
2023-11-03T07:12:35.102Z,98033.09
2023-11-03T07:15:37.798Z,98030.34
2023-11-03T07:18:40.182Z,98025.84
2023-11-03T07:21:41.905Z,98002.16
2023-11-03T07:24:46.412Z,98008.16
2023-11-03T07:27:48.521Z,98003.66
2023-11-03T07:30:51.783Z,98009.16
2023-11-03T07:33:55.647Z,98000.28
2023-11-03T07:36:58.693Z,97991.69
2023-11-03T07:40:00.804Z,97987.16
2023-11-03T07:43:02.615Z,97991.53
2023-11-03T07:46:04.679Z,97971.34
2023-11-03T07:49:06.561Z,97970.44
2023-11-03T07:52:08.351Z,97983.44
2023-11-03T07:55:12.997Z,97975.88
2023-11-03T07:58:15.165Z,97989.53
2023-11-03T08:01:17.473Z,98009.63
2023-11-03T08:04:19.274Z,98013.31
2023-11-03T08:07:21.033Z,98006.88
2023-11-03T08:10:22.818Z,97995.41
2023-11-03T08:13:28.462Z,97972.66
2023-11-03T08:16:30.204Z,97967.91
2023-11-03T08:19:32.011Z,97974.34
2023-11-03T08:22:34.363Z,97985.78
2023-11-03T08:25:36.275Z,98004.84
2023-11-03T08:28:38.284Z,97989.63
2023-11-03T08:31:40.020Z,97976.00
2023-11-03T08:34:41.870Z,97989.53
2023-11-03T08:37:43.815Z,97943.75
2023-11-03T08:40:46.867Z,97934.47
2023-11-03T08:43:49.140Z,97955.38
2023-11-03T08:46:52.042Z,97946.91
2023-11-03T08:49:55.329Z,97938.25
2023-11-03T08:52:57.720Z,97942.31
2023-11-03T08:56:02.087Z,97945.81
2023-11-03T08:59:05.147Z,97958.75
2023-11-03T09:02:07.840Z,97938.59
2023-11-03T09:05:12.520Z,97936.16
2023-11-03T09:08:16.121Z,97904.81
2023-11-03T09:11:18.778Z,97898.37
2023-11-03T09:14:21.606Z,97891.34
2023-11-03T09:17:24.436Z,97879.91
2023-11-03T09:20:27.451Z,97867.53
2023-11-03T09:23:30.315Z,97880.28
2023-11-03T09:26:32.059Z,97901.53
2023-11-03T09:29:33.659Z,97885.13
2023-11-03T09:32:36.270Z,97883.97
2023-11-03T09:35:38.081Z,97873.09
2023-11-03T09:38:40.127Z,97838.03
2023-11-03T09:41:58.848Z,97828.28
2023-11-03T09:45:00.837Z,97833.00
2023-11-03T09:48:05.686Z,97846.25
2023-11-03T09:51:08.158Z,97861.28
2023-11-03T09:54:10.144Z,97874.41
2023-11-03T09:57:13.326Z,97861.28
2023-11-03T10:00:20.662Z,97826.22
2023-11-03T10:03:22.320Z,97817.03
2023-11-03T10:06:24.360Z,97802.09
2023-11-03T10:09:25.997Z,97839.34
2023-11-03T10:12:28.062Z,97880.63
2023-11-03T10:15:31.043Z,97911.19
2023-11-03T10:18:32.737Z,97964.84
2023-11-03T10:21:34.359Z,98067.03
2023-11-03T10:24:37.430Z,98087.37
2023-11-03T10:27:39.954Z,98087.78
2023-11-03T10:30:42.517Z,98091.47
2023-11-03T10:33:45.267Z,98067.97
2023-11-03T10:36:52.597Z,98058.31
2023-11-03T10:39:55.058Z,98072.22
2023-11-03T10:42:59.615Z,98062.56
2023-11-03T10:46:12.240Z,98067.59
2023-11-03T10:49:34.052Z,98070.25
2023-11-03T10:52:50.600Z,98065.84
2023-11-03T10:56:22.237Z,98065.91
2023-11-03T10:59:34.564Z,98061.56
2023-11-03T11:03:11.292Z,98044.09
2023-11-03T11:06:21.864Z,98043.19
2023-11-03T11:09:38.245Z,98035.44
2023-11-03T11:12:48.566Z,98024.84
2023-11-03T11:16:04.062Z,97998.03
2023-11-03T11:19:11.635Z,97987.28
2023-11-03T11:22:20.361Z,97984.91
2023-11-03T11:25:22.191Z,97983.75
2023-11-03T11:28:36.732Z,98002.22
2023-11-03T11:31:39.127Z,98011.69
2023-11-03T11:34:42.771Z,98001.25
2023-11-03T11:37:45.244Z,97969.81
2023-11-03T11:40:47.546Z,97945.19
2023-11-03T11:43:50.371Z,97934.41
2023-11-03T11:46:57.550Z,97924.00
2023-11-03T11:50:00.953Z,97920.94
2023-11-03T11:53:02.674Z,97928.03
2023-11-03T11:56:07.023Z,97940.44
2023-11-03T11:59:10.670Z,97949.25
2023-11-03T12:02:12.603Z,97977.59
2023-11-03T12:05:18.242Z,97978.44
2023-11-03T12:08:19.975Z,97964.28
2023-11-03T12:11:22.015Z,97974.63
2023-11-03T12:14:24.665Z,97978.38
2023-11-03T12:17:26.623Z,97977.69
2023-11-03T12:20:28.481Z,97999.59
2023-11-03T12:23:33.505Z,97973.44
2023-11-03T12:26:35.833Z,97951.72
2023-11-03T12:29:37.707Z,97941.38
2023-11-03T12:32:39.761Z,97933.53
2023-11-03T12:35:44.442Z,97916.28
2023-11-03T12:38:48.149Z,97902.31
2023-11-03T12:42:11.176Z,97896.38
2023-11-03T12:45:13.170Z,97895.59
2023-11-03T12:48:21.760Z,97901.69
2023-11-03T12:51:31.447Z,97893.03
2023-11-03T12:54:33.479Z,97916.47
2023-11-03T12:57:43.167Z,97889.47
2023-11-03T13:00:50.334Z,97880.91
2023-11-03T13:03:53.302Z,97878.31
2023-11-03T13:06:58.843Z,97893.28
2023-11-03T13:10:00.815Z,97895.81
2023-11-03T13:13:04.294Z,97905.47
2023-11-03T13:16:07.056Z,97929.00
2023-11-03T13:19:09.266Z,97929.91
2023-11-03T13:22:12.562Z,98111.69
2023-11-03T13:25:14.548Z,98061.16
2023-11-03T13:28:16.778Z,98085.16
2023-11-03T13:31:18.975Z,97960.03
2023-11-03T13:34:21.775Z,98073.44
2023-11-03T13:37:23.473Z,98091.97
2023-11-03T13:40:29.424Z,97249.94
2023-11-03T13:43:31.841Z,97249.94
2023-11-03T13:46:34.013Z,97281.22
2023-11-03T13:49:36.927Z,97263.94
2023-11-03T13:52:38.767Z,97258.78
2023-11-03T13:55:40.600Z,97231.38
